PWSweather.com
Personal Weather Stations
Station Observations
KOHAVON11
Long Road Station, Avon, OH 44011

Long Road StationAvon, OH 44011

Lat: 41.437, Lon: -82.0477

Elevation: 686

Station Type: Davis Vantage Pro2

http://www.avon-weather.com

High Low Average
Temperature 44.4°F6.9°C 32.2°F0.1°C 35.4°F1.9°C
Dew Point 37.6°F3.1°C 29.4°F-1.4°C 32.1°F0.1°C
Winds 28.0 mph 45.1 kmh Calm Calm 9.0 mph ESE14.5 kmh ESE
Wind Gusts 38.0 mph61.2 kmh -- 19.0 mph30.6 kmh
Humidity 90% 77% 88%
Pressure 29.96 in1014.6 mb 29.49 in998.6 mb -
Precipitation 1.39 in35.3 mm - -
Hour Temp Dew Point Humidity Winds Wind Gusts Pressure Precip Precip Rate Daily Precip Total
12:01 AM 50.2°F10.1°C 43.2°F6.2°C 77% Calm Calm -- 29.85 in1010.8 mb 0.00 in0.0 mm 0.00 in0.0 mm 0.04 in1.0 mm
12:16 AM 49.4°F9.7°C 42.7°F5.9°C 78% Calm Calm -- 29.86 in1011.2 mb 0.00 in0.0 mm 0.00 in0.0 mm 0.04 in1.0 mm
12:21 AM 49.1°F9.5°C 42.4°F5.8°C 78% Calm Calm -- 29.86 in1011.2 mb 0.00 in0.0 mm 0.00 in0.0 mm 0.04 in1.0 mm
12:26 AM 48.9°F9.4°C 42.3°F5.7°C 78% Calm Calm -- 29.86 in1011.2 mb 0.00 in0.0 mm 0.00 in0.0 mm 0.04 in1.0 mm
12:31 AM 48.7°F9.3°C 42.4°F5.8°C 79% Calm Calm -- 29.87 in1011.5 mb 0.00 in0.0 mm 0.00 in0.0 mm 0.04 in1.0 mm
12:36 AM 48.5°F9.2°C 42.2°F5.7°C 79% Calm Calm -- 29.87 in1011.5 mb 0.00 in0.0 mm 0.00 in0.0 mm 0.04 in1.0 mm
12:41 AM 48.4°F9.1°C 42.4°F5.8°C 80% Calm Calm -- 29.86 in1011.2 mb 0.00 in0.0 mm 0.00 in0.0 mm 0.04 in1.0 mm
12:46 AM 48.2°F9.0°C 42.2°F5.7°C 80% Calm Calm 4.0 mph6.4 kmh 29.86 in1011.2 mb 0.00 in0.0 mm 0.00 in0.0 mm 0.04 in1.0 mm
12:51 AM 48.0°F8.9°C 42.1°F5.6°C 80% Calm Calm 4.0 mph6.4 kmh 29.86 in1011.2 mb 0.00 in0.0 mm 0.00 in0.0 mm 0.04 in1.0 mm
01:31 AM 44.4°F6.9°C 37.6°F3.1°C 77% Calm Calm 9.0 mph14.5 kmh 29.86 in1011.2 mb 0.00 in0.0 mm 0.00 in0.0 mm 0.00 in0.0 mm
03:11 AM 41.6°F5.3°C 35.5°F1.9°C 79% 1.0 mph E1.6 kmh E 2.0 mph3.2 kmh 29.85 in1010.8 mb 0.00 in0.0 mm 0.00 in0.0 mm 0.00 in0.0 mm
03:16 AM 41.6°F5.3°C 35.5°F1.9°C 79% 2.0 mph NE3.2 kmh NE 5.0 mph8.0 kmh 29.84 in1010.5 mb 0.00 in0.0 mm 0.00 in0.0 mm 0.00 in0.0 mm
03:21 AM 41.5°F5.3°C 35.4°F1.9°C 79% 1.0 mph NE1.6 kmh NE 5.0 mph8.0 kmh 29.84 in1010.5 mb 0.00 in0.0 mm 0.00 in0.0 mm 0.00 in0.0 mm
03:31 AM 41.4°F5.2°C 35.3°F1.8°C 79% 3.0 mph NE4.8 kmh NE 5.0 mph8.0 kmh 29.85 in1010.8 mb 0.00 in0.0 mm 0.00 in0.0 mm 0.00 in0.0 mm
03:36 AM 41.3°F5.2°C 35.2°F1.8°C 79% 1.0 mph NE1.6 kmh NE 5.0 mph8.0 kmh 29.84 in1010.5 mb 0.00 in0.0 mm 0.00 in0.0 mm 0.00 in0.0 mm
03:41 AM 41.2°F5.1°C 35.1°F1.7°C 79% 3.0 mph NE4.8 kmh NE 5.0 mph8.0 kmh 29.84 in1010.5 mb 0.00 in0.0 mm 0.00 in0.0 mm 0.00 in0.0 mm
03:46 AM 41.1°F5.1°C 35.0°F1.7°C 79% 4.0 mph NE6.4 kmh NE 6.0 mph9.7 kmh 29.84 in1010.5 mb 0.00 in0.0 mm 0.00 in0.0 mm 0.00 in0.0 mm
03:51 AM 40.9°F4.9°C 34.8°F1.6°C 79% 4.0 mph NE6.4 kmh NE 6.0 mph9.7 kmh 29.84 in1010.5 mb 0.00 in0.0 mm 0.00 in0.0 mm 0.00 in0.0 mm
03:56 AM 40.7°F4.8°C 34.6°F1.4°C 79% 7.0 mph NE11.3 kmh NE 8.0 mph12.9 kmh 29.84 in1010.5 mb 0.00 in0.0 mm 0.00 in0.0 mm 0.00 in0.0 mm
04:01 AM 40.5°F4.7°C 34.4°F1.3°C 79% 4.0 mph ENE6.4 kmh ENE 9.0 mph14.5 kmh 29.84 in1010.5 mb 0.00 in0.0 mm 0.00 in0.0 mm 0.00 in0.0 mm
04:06 AM 40.4°F4.7°C 34.4°F1.3°C 79% 5.0 mph NE8.0 kmh NE 9.0 mph14.5 kmh 29.84 in1010.5 mb 0.00 in0.0 mm 0.00 in0.0 mm 0.00 in0.0 mm
04:16 AM 39.9°F4.4°C 34.2°F1.2°C 80% 4.0 mph NE6.4 kmh NE 9.0 mph14.5 kmh 29.84 in1010.5 mb 0.00 in0.0 mm 0.00 in0.0 mm 0.00 in0.0 mm
04:21 AM 39.6°F4.2°C 33.9°F1.1°C 80% 1.0 mph ENE1.6 kmh ENE 8.0 mph12.9 kmh 29.84 in1010.5 mb 0.00 in0.0 mm 0.00 in0.0 mm 0.00 in0.0 mm
04:26 AM 39.5°F4.2°C 33.8°F1.0°C 80% 2.0 mph ENE3.2 kmh ENE 8.0 mph12.9 kmh 29.85 in1010.8 mb 0.00 in0.0 mm 0.00 in0.0 mm 0.00 in0.0 mm
04:31 AM 39.4°F4.1°C 34.0°F1.1°C 81% 6.0 mph E9.7 kmh E 8.0 mph12.9 kmh 29.85 in1010.8 mb 0.00 in0.0 mm 0.00 in0.0 mm 0.00 in0.0 mm
04:36 AM 39.2°F4.0°C 33.8°F1.0°C 81% 4.0 mph NE6.4 kmh NE 8.0 mph12.9 kmh 29.84 in1010.5 mb 0.00 in0.0 mm 0.00 in0.0 mm 0.00 in0.0 mm
04:46 AM 38.9°F3.8°C 33.9°F1.1°C 82% 4.0 mph NE6.4 kmh NE 8.0 mph12.9 kmh 29.84 in1010.5 mb 0.00 in0.0 mm 0.00 in0.0 mm 0.00 in0.0 mm
04:56 AM 38.6°F3.7°C 33.6°F0.9°C 82% 4.0 mph ENE6.4 kmh ENE 8.0 mph12.9 kmh 29.84 in1010.5 mb 0.00 in0.0 mm 0.00 in0.0 mm 0.00 in0.0 mm
05:01 AM 38.5°F3.6°C 33.5°F0.8°C 82% 1.0 mph ENE1.6 kmh ENE 8.0 mph12.9 kmh 29.84 in1010.5 mb 0.00 in0.0 mm 0.00 in0.0 mm 0.00 in0.0 mm
05:11 AM 38.2°F3.4°C 33.5°F0.8°C 83% Calm Calm 8.0 mph12.9 kmh 29.84 in1010.5 mb 0.00 in0.0 mm 0.00 in0.0 mm 0.00 in0.0 mm
05:16 AM 38.1°F3.4°C 33.4°F0.8°C 83% 1.0 mph E1.6 kmh E 8.0 mph12.9 kmh 29.83 in1010.2 mb 0.00 in0.0 mm 0.00 in0.0 mm 0.00 in0.0 mm
05:21 AM 38.0°F3.3°C 33.6°F0.9°C 84% 1.0 mph NE1.6 kmh NE 8.0 mph12.9 kmh 29.83 in1010.2 mb 0.00 in0.0 mm 0.00 in0.0 mm 0.00 in0.0 mm
05:26 AM 38.0°F3.3°C 33.6°F0.9°C 84% 5.0 mph E8.0 kmh E 8.0 mph12.9 kmh 29.82 in1009.8 mb 0.00 in0.0 mm 0.00 in0.0 mm 0.00 in0.0 mm
05:31 AM 37.9°F3.3°C 33.5°F0.8°C 84% 4.0 mph ENE6.4 kmh ENE 10.0 mph16.1 kmh 29.80 in1009.1 mb 0.00 in0.0 mm 0.00 in0.0 mm 0.00 in0.0 mm
05:36 AM 37.8°F3.2°C 33.4°F0.8°C 84% 5.0 mph ENE8.0 kmh ENE 10.0 mph16.1 kmh 29.81 in1009.5 mb 0.00 in0.0 mm 0.00 in0.0 mm 0.00 in0.0 mm
05:41 AM 37.8°F3.2°C 33.4°F0.8°C 84% 3.0 mph ENE4.8 kmh ENE 10.0 mph16.1 kmh 29.80 in1009.1 mb 0.00 in0.0 mm 0.00 in0.0 mm 0.00 in0.0 mm
05:46 AM 37.8°F3.2°C 33.7°F0.9°C 85% 5.0 mph ENE8.0 kmh ENE 10.0 mph16.1 kmh 29.80 in1009.1 mb 0.00 in0.0 mm 0.00 in0.0 mm 0.00 in0.0 mm
05:51 AM 37.8°F3.2°C 33.7°F0.9°C 85% 2.0 mph ENE3.2 kmh ENE 8.0 mph12.9 kmh 29.80 in1009.1 mb 0.00 in0.0 mm 0.00 in0.0 mm 0.00 in0.0 mm
05:56 AM 37.8°F3.2°C 33.7°F0.9°C 85% 3.0 mph ENE4.8 kmh ENE 8.0 mph12.9 kmh 29.80 in1009.1 mb 0.00 in0.0 mm 0.00 in0.0 mm 0.00 in0.0 mm
06:01 AM 37.8°F3.2°C 33.7°F0.9°C 85% 5.0 mph NE8.0 kmh NE 8.0 mph12.9 kmh 29.81 in1009.5 mb 0.00 in0.0 mm 0.00 in0.0 mm 0.00 in0.0 mm
06:06 AM 37.8°F3.2°C 33.7°F0.9°C 85% 7.0 mph NE11.3 kmh NE 8.0 mph12.9 kmh 29.82 in1009.8 mb 0.00 in0.0 mm 0.00 in0.0 mm 0.00 in0.0 mm
06:11 AM 37.8°F3.2°C 33.7°F0.9°C 85% 3.0 mph NE4.8 kmh NE 12.0 mph19.3 kmh 29.82 in1009.8 mb 0.00 in0.0 mm 0.00 in0.0 mm 0.00 in0.0 mm
06:16 AM 37.8°F3.2°C 33.7°F0.9°C 85% 2.0 mph ENE3.2 kmh ENE 12.0 mph19.3 kmh 29.82 in1009.8 mb 0.00 in0.0 mm 0.00 in0.0 mm 0.00 in0.0 mm
06:21 AM 37.8°F3.2°C 33.7°F0.9°C 85% 6.0 mph NE9.7 kmh NE 12.0 mph19.3 kmh 29.81 in1009.5 mb 0.00 in0.0 mm 0.00 in0.0 mm 0.00 in0.0 mm
06:26 AM 37.7°F3.2°C 33.6°F0.9°C 85% Calm Calm 12.0 mph19.3 kmh 29.82 in1009.8 mb 0.00 in0.0 mm 0.00 in0.0 mm 0.00 in0.0 mm
06:31 AM 37.7°F3.2°C 33.6°F0.9°C 85% Calm Calm -- 29.82 in1009.8 mb 0.00 in0.0 mm 0.00 in0.0 mm 0.00 in0.0 mm
06:36 AM 37.7°F3.2°C 33.6°F0.9°C 85% Calm Calm 3.0 mph4.8 kmh 29.82 in1009.8 mb 0.00 in0.0 mm 0.00 in0.0 mm 0.00 in0.0 mm
06:41 AM 37.8°F3.2°C 34.0°F1.1°C 86% Calm Calm -- 29.82 in1009.8 mb 0.00 in0.0 mm 0.00 in0.0 mm 0.00 in0.0 mm
06:56 AM 38.0°F3.3°C 34.2°F1.2°C 86% Calm Calm -- 29.82 in1009.8 mb 0.00 in0.0 mm 0.00 in0.0 mm 0.00 in0.0 mm
07:01 AM 38.0°F3.3°C 34.2°F1.2°C 86% Calm Calm -- 29.82 in1009.8 mb 0.00 in0.0 mm 0.00 in0.0 mm 0.01 in0.3 mm
07:06 AM 38.1°F3.4°C 34.3°F1.3°C 86% Calm Calm -- 29.80 in1009.1 mb 0.00 in0.0 mm 0.00 in0.0 mm 0.01 in0.3 mm
07:11 AM 38.2°F3.4°C 34.4°F1.3°C 86% Calm Calm -- 29.79 in1008.8 mb 0.00 in0.0 mm 0.00 in0.0 mm 0.01 in0.3 mm
07:16 AM 38.2°F3.4°C 34.7°F1.5°C 87% 4.0 mph ENE6.4 kmh ENE 4.0 mph6.4 kmh 29.79 in1008.8 mb 0.00 in0.0 mm 0.00 in0.0 mm 0.01 in0.3 mm
07:21 AM 38.2°F3.4°C 34.7°F1.5°C 87% 3.0 mph ENE4.8 kmh ENE 5.0 mph8.0 kmh 29.78 in1008.5 mb 0.00 in0.0 mm 0.00 in0.0 mm 0.02 in0.5 mm
07:26 AM 38.2°F3.4°C 34.7°F1.5°C 87% 2.0 mph ENE3.2 kmh ENE 7.0 mph11.3 kmh 29.77 in1008.1 mb 0.00 in0.0 mm 0.00 in0.0 mm 0.02 in0.5 mm
07:31 AM 38.2°F3.4°C 34.7°F1.5°C 87% 1.0 mph E1.6 kmh E 7.0 mph11.3 kmh 29.78 in1008.5 mb 0.00 in0.0 mm 0.00 in0.0 mm 0.02 in0.5 mm
07:36 AM 38.1°F3.4°C 34.6°F1.4°C 87% 2.0 mph NE3.2 kmh NE 7.0 mph11.3 kmh 29.78 in1008.5 mb 0.00 in0.0 mm 0.00 in0.0 mm 0.02 in0.5 mm
07:41 AM 38.0°F3.3°C 34.5°F1.4°C 87% 3.0 mph NE4.8 kmh NE 7.0 mph11.3 kmh 29.79 in1008.8 mb 0.00 in0.0 mm 0.00 in0.0 mm 0.02 in0.5 mm
07:46 AM 37.8°F3.2°C 34.3°F1.3°C 87% 2.0 mph ENE3.2 kmh ENE 2.0 mph3.2 kmh 29.79 in1008.8 mb 0.00 in0.0 mm 0.00 in0.0 mm 0.02 in0.5 mm
07:51 AM 37.7°F3.2°C 34.2°F1.2°C 87% 1.0 mph NE1.6 kmh NE 7.0 mph11.3 kmh 29.78 in1008.5 mb 0.00 in0.0 mm 0.00 in0.0 mm 0.03 in0.8 mm
08:06 AM 37.6°F3.1°C 34.4°F1.3°C 88% Calm Calm 6.0 mph9.7 kmh 29.79 in1008.8 mb 0.05 in1.3 mm 0.07 in1.8 mm 0.04 in1.0 mm
08:11 AM 37.6°F3.1°C 34.4°F1.3°C 88% 6.0 mph NE9.7 kmh NE 10.0 mph16.1 kmh 29.78 in1008.5 mb 0.04 in1.0 mm 0.00 in0.0 mm 0.04 in1.0 mm
08:16 AM 37.5°F3.1°C 34.3°F1.3°C 88% 4.0 mph NE6.4 kmh NE 10.0 mph16.1 kmh 29.79 in1008.8 mb 0.04 in1.0 mm 0.00 in0.0 mm 0.05 in1.3 mm
08:21 AM 37.5°F3.1°C 34.3°F1.3°C 88% 4.0 mph NE6.4 kmh NE 10.0 mph16.1 kmh 29.79 in1008.8 mb 0.04 in1.0 mm 0.00 in0.0 mm 0.05 in1.3 mm
08:26 AM 37.4°F3.0°C 34.2°F1.2°C 88% 8.0 mph ENE12.9 kmh ENE 10.0 mph16.1 kmh 29.78 in1008.5 mb 0.04 in1.0 mm 0.00 in0.0 mm 0.05 in1.3 mm
08:31 AM 37.3°F2.9°C 34.1°F1.2°C 88% 8.0 mph ENE12.9 kmh ENE 10.0 mph16.1 kmh 29.78 in1008.5 mb 0.00 in0.0 mm 0.00 in0.0 mm 0.05 in1.3 mm
08:36 AM 37.2°F2.9°C 34.0°F1.1°C 88% 9.0 mph ENE14.5 kmh ENE 11.0 mph17.7 kmh 29.78 in1008.5 mb 0.00 in0.0 mm 0.00 in0.0 mm 0.05 in1.3 mm
08:41 AM 37.1°F2.8°C 33.9°F1.1°C 88% 6.0 mph NE9.7 kmh NE 11.0 mph17.7 kmh 29.79 in1008.8 mb 0.00 in0.0 mm 0.00 in0.0 mm 0.05 in1.3 mm
08:46 AM 37.1°F2.8°C 33.9°F1.1°C 88% 7.0 mph NE11.3 kmh NE 12.0 mph19.3 kmh 29.78 in1008.5 mb 0.00 in0.0 mm 0.00 in0.0 mm 0.05 in1.3 mm
08:51 AM 37.0°F2.8°C 33.8°F1.0°C 88% 3.0 mph NE4.8 kmh NE 12.0 mph19.3 kmh 29.78 in1008.5 mb 0.00 in0.0 mm 0.00 in0.0 mm 0.06 in1.5 mm
08:56 AM 37.0°F2.8°C 33.8°F1.0°C 88% 5.0 mph NNE8.0 kmh NNE 12.0 mph19.3 kmh 29.79 in1008.8 mb 0.00 in0.0 mm 0.00 in0.0 mm 0.06 in1.5 mm
09:01 AM 37.0°F2.8°C 33.8°F1.0°C 88% 5.0 mph NE8.0 kmh NE 12.0 mph19.3 kmh 29.78 in1008.5 mb 0.00 in0.0 mm 0.00 in0.0 mm 0.06 in1.5 mm
09:06 AM 37.0°F2.8°C 33.8°F1.0°C 88% 5.0 mph NE8.0 kmh NE 10.0 mph16.1 kmh 29.78 in1008.5 mb 0.00 in0.0 mm 0.00 in0.0 mm 0.06 in1.5 mm
09:11 AM 37.0°F2.8°C 33.8°F1.0°C 88% 6.0 mph NE9.7 kmh NE 10.0 mph16.1 kmh 29.78 in1008.5 mb 0.00 in0.0 mm 0.00 in0.0 mm 0.06 in1.5 mm
09:16 AM 36.9°F2.7°C 33.7°F0.9°C 88% 8.0 mph NE12.9 kmh NE 14.0 mph22.5 kmh 29.78 in1008.5 mb 0.00 in0.0 mm 0.00 in0.0 mm 0.06 in1.5 mm
09:21 AM 36.9°F2.7°C 33.7°F0.9°C 88% 3.0 mph NE4.8 kmh NE 14.0 mph22.5 kmh 29.78 in1008.5 mb 0.00 in0.0 mm 0.00 in0.0 mm 0.07 in1.8 mm
09:26 AM 36.8°F2.7°C 33.6°F0.9°C 88% 6.0 mph NE9.7 kmh NE 14.0 mph22.5 kmh 29.77 in1008.1 mb 0.00 in0.0 mm 0.00 in0.0 mm 0.07 in1.8 mm
09:31 AM 36.8°F2.7°C 33.6°F0.9°C 88% 5.0 mph NE8.0 kmh NE 14.0 mph22.5 kmh 29.77 in1008.1 mb 0.00 in0.0 mm 0.00 in0.0 mm 0.07 in1.8 mm
09:36 AM 36.7°F2.6°C 33.5°F0.8°C 88% 5.0 mph NE8.0 kmh NE 13.0 mph20.9 kmh 29.77 in1008.1 mb 0.04 in1.0 mm 0.48 in12.2 mm 0.08 in2.0 mm
09:41 AM 36.6°F2.6°C 33.7°F0.9°C 89% 9.0 mph ENE14.5 kmh ENE 13.0 mph20.9 kmh 29.76 in1007.8 mb 0.04 in1.0 mm 0.00 in0.0 mm 0.08 in2.0 mm
09:46 AM 36.6°F2.6°C 33.7°F0.9°C 89% 11.0 mph NE17.7 kmh NE 13.0 mph20.9 kmh 29.77 in1008.1 mb 0.04 in1.0 mm 0.00 in0.0 mm 0.08 in2.0 mm
09:51 AM 36.6°F2.6°C 33.4°F0.8°C 88% 4.0 mph ENE6.4 kmh ENE 13.0 mph20.9 kmh 29.77 in1008.1 mb 0.00 in0.0 mm 0.00 in0.0 mm 0.08 in2.0 mm
09:56 AM 36.6°F2.6°C 33.7°F0.9°C 89% 8.0 mph NE12.9 kmh NE 12.0 mph19.3 kmh 29.76 in1007.8 mb 0.00 in0.0 mm 0.00 in0.0 mm 0.08 in2.0 mm
10:01 AM 36.6°F2.6°C 33.7°F0.9°C 89% 5.0 mph NE8.0 kmh NE 12.0 mph19.3 kmh 29.75 in1007.5 mb 0.00 in0.0 mm 0.00 in0.0 mm 0.08 in2.0 mm
10:06 AM 36.6°F2.6°C 33.7°F0.9°C 89% 5.0 mph NE8.0 kmh NE 12.0 mph19.3 kmh 29.75 in1007.5 mb 0.00 in0.0 mm 0.00 in0.0 mm 0.08 in2.0 mm
10:11 AM 36.6°F2.6°C 33.7°F0.9°C 89% 11.0 mph NE17.7 kmh NE 13.0 mph20.9 kmh 29.75 in1007.5 mb 0.00 in0.0 mm 0.00 in0.0 mm 0.08 in2.0 mm
10:16 AM 36.6°F2.6°C 33.7°F0.9°C 89% 3.0 mph NE4.8 kmh NE 13.0 mph20.9 kmh 29.74 in1007.1 mb 0.00 in0.0 mm 0.00 in0.0 mm 0.08 in2.0 mm
10:21 AM 36.5°F2.5°C 33.6°F0.9°C 89% 11.0 mph NE17.7 kmh NE 13.0 mph20.9 kmh 29.74 in1007.1 mb 0.00 in0.0 mm 0.00 in0.0 mm 0.08 in2.0 mm
10:26 AM 36.6°F2.6°C 33.7°F0.9°C 89% 8.0 mph E12.9 kmh E 15.0 mph24.1 kmh 29.74 in1007.1 mb 0.00 in0.0 mm 0.00 in0.0 mm 0.08 in2.0 mm
10:31 AM 36.5°F2.5°C 33.6°F0.9°C 89% 4.0 mph NE6.4 kmh NE 15.0 mph24.1 kmh 29.74 in1007.1 mb 0.00 in0.0 mm 0.00 in0.0 mm 0.08 in2.0 mm
10:36 AM 36.5°F2.5°C 33.6°F0.9°C 89% 6.0 mph NE9.7 kmh NE 15.0 mph24.1 kmh 29.73 in1006.8 mb 0.00 in0.0 mm 0.00 in0.0 mm 0.08 in2.0 mm
10:41 AM 36.5°F2.5°C 33.6°F0.9°C 89% 5.0 mph NE8.0 kmh NE 15.0 mph24.1 kmh 29.73 in1006.8 mb 0.00 in0.0 mm 0.00 in0.0 mm 0.08 in2.0 mm
10:46 AM 36.5°F2.5°C 33.6°F0.9°C 89% 10.0 mph NE16.1 kmh NE 15.0 mph24.1 kmh 29.73 in1006.8 mb 0.00 in0.0 mm 0.00 in0.0 mm 0.09 in2.3 mm
10:51 AM 36.5°F2.5°C 33.6°F0.9°C 89% 7.0 mph NE11.3 kmh NE 18.0 mph29.0 kmh 29.72 in1006.4 mb 0.10 in2.5 mm 1.20 in30.5 mm 0.10 in2.5 mm
10:56 AM 36.5°F2.5°C 33.6°F0.9°C 89% 4.0 mph ENE6.4 kmh ENE 18.0 mph29.0 kmh 29.72 in1006.4 mb 0.07 in1.8 mm 0.00 in0.0 mm 0.10 in2.5 mm
11:01 AM 36.4°F2.4°C 33.5°F0.8°C 89% 8.0 mph NE12.9 kmh NE 18.0 mph29.0 kmh 29.71 in1006.1 mb 0.07 in1.8 mm 0.00 in0.0 mm 0.11 in2.8 mm
11:06 AM 36.4°F2.4°C 33.5°F0.8°C 89% 15.0 mph NE24.1 kmh NE 18.0 mph29.0 kmh 29.71 in1006.1 mb 0.07 in1.8 mm 0.00 in0.0 mm 0.11 in2.8 mm
11:11 AM 36.3°F2.4°C 33.4°F0.8°C 89% 14.0 mph NE22.5 kmh NE 15.0 mph24.1 kmh 29.70 in1005.8 mb 0.07 in1.8 mm 0.00 in0.0 mm 0.12 in3.0 mm
11:16 AM 36.3°F2.4°C 33.4°F0.8°C 89% 7.0 mph NE11.3 kmh NE 18.0 mph29.0 kmh 29.70 in1005.8 mb 0.05 in1.3 mm 0.00 in0.0 mm 0.12 in3.0 mm
11:21 AM 36.2°F2.3°C 33.3°F0.7°C 89% 10.0 mph NE16.1 kmh NE 18.0 mph29.0 kmh 29.69 in1005.4 mb 0.04 in1.0 mm 0.00 in0.0 mm 0.13 in3.3 mm
11:26 AM 36.2°F2.3°C 33.3°F0.7°C 89% 9.0 mph ENE14.5 kmh ENE 18.0 mph29.0 kmh 29.69 in1005.4 mb 0.15 in3.8 mm 1.32 in33.5 mm 0.14 in3.6 mm
11:31 AM 36.2°F2.3°C 33.3°F0.7°C 89% 10.0 mph ENE16.1 kmh ENE 21.0 mph33.8 kmh 29.68 in1005.1 mb 0.07 in1.8 mm 0.00 in0.0 mm 0.14 in3.6 mm
11:36 AM 36.2°F2.3°C 33.3°F0.7°C 89% 9.0 mph ENE14.5 kmh ENE 21.0 mph33.8 kmh 29.68 in1005.1 mb 0.07 in1.8 mm 0.00 in0.0 mm 0.15 in3.8 mm
11:41 AM 36.2°F2.3°C 33.3°F0.7°C 89% 13.0 mph NE20.9 kmh NE 21.0 mph33.8 kmh 29.69 in1005.4 mb 0.06 in1.5 mm 0.00 in0.0 mm 0.15 in3.8 mm
11:46 AM 36.2°F2.3°C 33.3°F0.7°C 89% 7.0 mph ENE11.3 kmh ENE 21.0 mph33.8 kmh 29.69 in1005.4 mb 0.04 in1.0 mm 0.00 in0.0 mm 0.15 in3.8 mm
11:51 AM 36.2°F2.3°C 33.3°F0.7°C 89% 7.0 mph ENE11.3 kmh ENE 18.0 mph29.0 kmh 29.69 in1005.4 mb 0.04 in1.0 mm 0.00 in0.0 mm 0.16 in4.1 mm
11:56 AM 36.2°F2.3°C 33.3°F0.7°C 89% 4.0 mph ENE6.4 kmh ENE 18.0 mph29.0 kmh 29.69 in1005.4 mb 0.07 in1.8 mm 0.36 in9.1 mm 0.17 in4.3 mm
12:01 PM 36.2°F2.3°C 33.3°F0.7°C 89% 9.0 mph NE14.5 kmh NE 19.0 mph30.6 kmh 29.69 in1005.4 mb 0.15 in3.8 mm 0.09 in2.3 mm 0.18 in4.6 mm
12:06 PM 36.1°F2.3°C 33.2°F0.7°C 89% 11.0 mph ENE17.7 kmh ENE 19.0 mph30.6 kmh 29.69 in1005.4 mb 0.09 in2.3 mm 0.00 in0.0 mm 0.19 in4.8 mm
12:11 PM 36.1°F2.3°C 33.2°F0.7°C 89% 10.0 mph E16.1 kmh E 19.0 mph30.6 kmh 29.69 in1005.4 mb 0.08 in2.0 mm 0.00 in0.0 mm 0.19 in4.8 mm
12:16 PM 36.1°F2.3°C 33.2°F0.7°C 89% 8.0 mph ENE12.9 kmh ENE 19.0 mph30.6 kmh 29.69 in1005.4 mb 0.07 in1.8 mm 0.00 in0.0 mm 0.20 in5.1 mm
12:21 PM 36.1°F2.3°C 33.2°F0.7°C 89% 14.0 mph NE22.5 kmh NE 17.0 mph27.4 kmh 29.68 in1005.1 mb 0.07 in1.8 mm 0.00 in0.0 mm 0.20 in5.1 mm
12:26 PM 36.1°F2.3°C 33.2°F0.7°C 89% 15.0 mph NE24.1 kmh NE 21.0 mph33.8 kmh 29.67 in1004.7 mb 0.07 in1.8 mm 0.00 in0.0 mm 0.21 in5.3 mm
12:31 PM 36.1°F2.3°C 33.2°F0.7°C 89% 5.0 mph NE8.0 kmh NE 21.0 mph33.8 kmh 29.67 in1004.7 mb 0.07 in1.8 mm 0.00 in0.0 mm 0.22 in5.6 mm
12:36 PM 36.1°F2.3°C 33.2°F0.7°C 89% 3.0 mph NE4.8 kmh NE 21.0 mph33.8 kmh 29.67 in1004.7 mb 0.07 in1.8 mm 0.00 in0.0 mm 0.22 in5.6 mm
12:41 PM 36.0°F2.2°C 33.1°F0.6°C 89% 6.0 mph NE9.7 kmh NE 21.0 mph33.8 kmh 29.68 in1005.1 mb 0.05 in1.3 mm 0.00 in0.0 mm 0.22 in5.6 mm
12:46 PM 36.0°F2.2°C 33.1°F0.6°C 89% 5.0 mph NE8.0 kmh NE 19.0 mph30.6 kmh 29.67 in1004.7 mb 0.05 in1.3 mm 0.00 in0.0 mm 0.23 in5.8 mm
12:51 PM 35.9°F2.2°C 33.0°F0.6°C 89% 17.0 mph ENE27.4 kmh ENE 19.0 mph30.6 kmh 29.67 in1004.7 mb 0.07 in1.8 mm 0.24 in6.1 mm 0.23 in5.8 mm
12:56 PM 35.9°F2.2°C 33.0°F0.6°C 89% 11.0 mph ENE17.7 kmh ENE 19.0 mph30.6 kmh 29.67 in1004.7 mb 0.07 in1.8 mm 0.00 in0.0 mm 0.24 in6.1 mm
01:01 PM 35.9°F2.2°C 33.0°F0.6°C 89% 8.0 mph NE12.9 kmh NE 19.0 mph30.6 kmh 29.66 in1004.4 mb 0.10 in2.5 mm 0.03 in0.8 mm 0.25 in6.4 mm
01:06 PM 35.9°F2.2°C 33.0°F0.6°C 89% 19.0 mph NE30.6 kmh NE 20.0 mph32.2 kmh 29.66 in1004.4 mb 0.08 in2.0 mm 0.00 in0.0 mm 0.26 in6.6 mm
01:11 PM 35.8°F2.1°C 32.9°F0.5°C 89% 14.0 mph ENE22.5 kmh ENE 25.0 mph40.2 kmh 29.66 in1004.4 mb 0.08 in2.0 mm 0.00 in0.0 mm 0.26 in6.6 mm
01:16 PM 35.8°F2.1°C 32.9°F0.5°C 89% 11.0 mph NE17.7 kmh NE 25.0 mph40.2 kmh 29.65 in1004.1 mb 0.06 in1.5 mm 0.00 in0.0 mm 0.27 in6.9 mm
01:21 PM 35.7°F2.1°C 32.8°F0.4°C 89% 13.0 mph ENE20.9 kmh ENE 25.0 mph40.2 kmh 29.65 in1004.1 mb 0.13 in3.3 mm 0.84 in21.3 mm 0.28 in7.1 mm
01:26 PM 35.7°F2.1°C 32.8°F0.4°C 89% 18.0 mph NE29.0 kmh NE 25.0 mph40.2 kmh 29.64 in1003.7 mb 0.11 in2.8 mm 0.00 in0.0 mm 0.29 in7.4 mm
01:31 PM 35.7°F2.1°C 32.8°F0.4°C 89% 11.0 mph NE17.7 kmh NE 20.0 mph32.2 kmh 29.64 in1003.7 mb 0.14 in3.6 mm 0.36 in9.1 mm 0.30 in7.6 mm
01:36 PM 35.7°F2.1°C 32.8°F0.4°C 89% 7.0 mph NE11.3 kmh NE 23.0 mph37.0 kmh 29.63 in1003.4 mb 0.12 in3.0 mm 0.00 in0.0 mm 0.31 in7.9 mm
01:41 PM 35.7°F2.1°C 32.8°F0.4°C 89% 14.0 mph ENE22.5 kmh ENE 23.0 mph37.0 kmh 29.63 in1003.4 mb 0.13 in3.3 mm 0.12 in3.0 mm 0.32 in8.1 mm
01:46 PM 35.7°F2.1°C 32.8°F0.4°C 89% 12.0 mph ENE19.3 kmh ENE 23.0 mph37.0 kmh 29.62 in1003.0 mb 0.11 in2.8 mm 0.00 in0.0 mm 0.33 in8.4 mm
01:51 PM 35.8°F2.1°C 32.9°F0.5°C 89% 15.0 mph NE24.1 kmh NE 23.0 mph37.0 kmh 29.61 in1002.7 mb 0.13 in3.3 mm 0.24 in6.1 mm 0.34 in8.6 mm
01:56 PM 35.7°F2.1°C 32.8°F0.4°C 89% 21.0 mph NE33.8 kmh NE 30.0 mph48.3 kmh 29.61 in1002.7 mb 0.11 in2.8 mm 0.00 in0.0 mm 0.35 in8.9 mm
02:01 PM 35.7°F2.1°C 32.8°F0.4°C 89% 18.0 mph ENE29.0 kmh ENE 30.0 mph48.3 kmh 29.61 in1002.7 mb 0.09 in2.3 mm 0.00 in0.0 mm 0.35 in8.9 mm
02:06 PM 35.6°F2.0°C 32.7°F0.4°C 89% 7.0 mph NE11.3 kmh NE 30.0 mph48.3 kmh 29.60 in1002.4 mb 0.09 in2.3 mm 0.00 in0.0 mm 0.36 in9.1 mm
02:11 PM 35.6°F2.0°C 32.7°F0.4°C 89% 13.0 mph ENE20.9 kmh ENE 30.0 mph48.3 kmh 29.60 in1002.4 mb 0.14 in3.6 mm 0.60 in15.2 mm 0.37 in9.4 mm
02:16 PM 35.6°F2.0°C 32.7°F0.4°C 89% 5.0 mph NE8.0 kmh NE 25.0 mph40.2 kmh 29.60 in1002.4 mb 0.14 in3.6 mm 0.00 in0.0 mm 0.38 in9.7 mm
02:21 PM 35.5°F1.9°C 32.6°F0.3°C 89% 11.0 mph NE17.7 kmh NE 25.0 mph40.2 kmh 29.60 in1002.4 mb 0.19 in4.8 mm 0.60 in15.2 mm 0.40 in10.2 mm
02:26 PM 35.5°F1.9°C 32.6°F0.3°C 89% 18.0 mph NE29.0 kmh NE 26.0 mph41.8 kmh 29.59 in1002.0 mb 0.13 in3.3 mm 0.00 in0.0 mm 0.41 in10.4 mm
02:31 PM 35.6°F2.0°C 32.7°F0.4°C 89% 13.0 mph NE20.9 kmh NE 29.0 mph46.7 kmh 29.58 in1001.7 mb 0.12 in3.0 mm 0.00 in0.0 mm 0.42 in10.7 mm
02:36 PM 35.6°F2.0°C 32.7°F0.4°C 89% 11.0 mph N17.7 kmh N 29.0 mph46.7 kmh 29.57 in1001.4 mb 0.17 in4.3 mm 0.60 in15.2 mm 0.43 in10.9 mm
02:41 PM 35.6°F2.0°C 32.7°F0.4°C 89% 13.0 mph NE20.9 kmh NE 29.0 mph46.7 kmh 29.57 in1001.4 mb 0.18 in4.6 mm 0.12 in3.0 mm 0.45 in11.4 mm
02:46 PM 35.6°F2.0°C 32.7°F0.4°C 89% 13.0 mph NE20.9 kmh NE 29.0 mph46.7 kmh 29.57 in1001.4 mb 0.13 in3.3 mm 0.00 in0.0 mm 0.46 in11.7 mm
02:51 PM 35.5°F1.9°C 32.6°F0.3°C 89% 22.0 mph ENE35.4 kmh ENE 23.0 mph37.0 kmh 29.57 in1001.4 mb 0.14 in3.6 mm 0.12 in3.0 mm 0.47 in11.9 mm
02:56 PM 35.4°F1.9°C 32.5°F0.3°C 89% 11.0 mph ENE17.7 kmh ENE 24.0 mph38.6 kmh 29.56 in1001.0 mb 0.12 in3.0 mm 0.00 in0.0 mm 0.48 in12.2 mm
03:01 PM 35.4°F1.9°C 32.5°F0.3°C 89% 15.0 mph NE24.1 kmh NE 29.0 mph46.7 kmh 29.55 in1000.7 mb 0.11 in2.8 mm 0.00 in0.0 mm 0.49 in12.4 mm
03:06 PM 35.4°F1.9°C 32.5°F0.3°C 89% 17.0 mph ENE27.4 kmh ENE 31.0 mph49.9 kmh 29.55 in1000.7 mb 0.10 in2.5 mm 0.00 in0.0 mm 0.50 in12.7 mm
03:11 PM 35.4°F1.9°C 32.5°F0.3°C 89% 28.0 mph NE45.1 kmh NE 32.0 mph51.5 kmh 29.54 in1000.3 mb 0.10 in2.5 mm 0.00 in0.0 mm 0.50 in12.7 mm
03:16 PM 35.4°F1.9°C 32.5°F0.3°C 89% 20.0 mph NE32.2 kmh NE 32.0 mph51.5 kmh 29.54 in1000.3 mb 0.14 in3.6 mm 0.48 in12.2 mm 0.51 in13.0 mm
03:21 PM 35.3°F1.8°C 32.4°F0.2°C 89% 17.0 mph NE27.4 kmh NE 34.0 mph54.7 kmh 29.54 in1000.3 mb 0.12 in3.0 mm 0.00 in0.0 mm 0.52 in13.2 mm
03:26 PM 35.2°F1.8°C 32.3°F0.2°C 89% 23.0 mph NE37.0 kmh NE 34.0 mph54.7 kmh 29.54 in1000.3 mb 0.15 in3.8 mm 0.36 in9.1 mm 0.54 in13.7 mm
03:31 PM 35.1°F1.7°C 32.2°F0.1°C 89% 24.0 mph NE38.6 kmh NE 34.0 mph54.7 kmh 29.54 in1000.3 mb 0.09 in2.3 mm 0.00 in0.0 mm 0.54 in13.7 mm
03:36 PM 35.0°F1.7°C 32.1°F0.1°C 89% 15.0 mph NE24.1 kmh NE 34.0 mph54.7 kmh 29.54 in1000.3 mb 0.09 in2.3 mm 0.00 in0.0 mm 0.55 in14.0 mm
03:41 PM 34.9°F1.6°C 32.0°F0.0°C 89% 18.0 mph NE29.0 kmh NE 33.0 mph53.1 kmh 29.54 in1000.3 mb 0.06 in1.5 mm 0.00 in0.0 mm 0.55 in14.0 mm
03:46 PM 34.8°F1.6°C 31.9°F-0.1°C 89% 21.0 mph NE33.8 kmh NE 33.0 mph53.1 kmh 29.54 in1000.3 mb 0.06 in1.5 mm 0.00 in0.0 mm 0.56 in14.2 mm
03:51 PM 34.7°F1.5°C 31.8°F-0.1°C 89% 12.0 mph NNE19.3 kmh NNE 32.0 mph51.5 kmh 29.54 in1000.3 mb 0.24 in6.1 mm 2.16 in54.9 mm 0.58 in14.7 mm
03:56 PM 34.7°F1.5°C 31.8°F-0.1°C 89% 17.0 mph ENE27.4 kmh ENE 32.0 mph51.5 kmh 29.53 in1000.0 mb 0.17 in4.3 mm 0.00 in0.0 mm 0.60 in15.2 mm
04:01 PM 34.6°F1.4°C 31.7°F-0.2°C 89% 21.0 mph ENE33.8 kmh ENE 38.0 mph61.2 kmh 29.52 in999.7 mb 0.14 in3.6 mm 0.00 in0.0 mm 0.61 in15.5 mm
04:06 PM 34.6°F1.4°C 31.7°F-0.2°C 89% 22.0 mph NE35.4 kmh NE 38.0 mph61.2 kmh 29.52 in999.7 mb 0.10 in2.5 mm 0.00 in0.0 mm 0.62 in15.7 mm
04:11 PM 34.5°F1.4°C 31.6°F-0.2°C 89% 28.0 mph NE45.1 kmh NE 38.0 mph61.2 kmh 29.52 in999.7 mb 0.10 in2.5 mm 0.00 in0.0 mm 0.63 in16.0 mm
04:16 PM 34.5°F1.4°C 31.6°F-0.2°C 89% 13.0 mph ENE20.9 kmh ENE 38.0 mph61.2 kmh 29.52 in999.7 mb 0.10 in2.5 mm 0.00 in0.0 mm 0.64 in16.3 mm
04:21 PM 34.4°F1.3°C 31.5°F-0.3°C 89% 22.0 mph ENE35.4 kmh ENE 30.0 mph48.3 kmh 29.52 in999.7 mb 0.11 in2.8 mm 0.12 in3.0 mm 0.65 in16.5 mm
04:26 PM 34.3°F1.3°C 31.4°F-0.3°C 89% 20.0 mph NE32.2 kmh NE 30.0 mph48.3 kmh 29.52 in999.7 mb 0.11 in2.8 mm 0.00 in0.0 mm 0.66 in16.8 mm
04:31 PM 34.3°F1.3°C 31.4°F-0.3°C 89% 17.0 mph NE27.4 kmh NE 30.0 mph48.3 kmh 29.52 in999.7 mb 0.13 in3.3 mm 0.24 in6.1 mm 0.67 in17.0 mm
04:36 PM 34.2°F1.2°C 31.3°F-0.4°C 89% 14.0 mph ENE22.5 kmh ENE 32.0 mph51.5 kmh 29.51 in999.3 mb 0.15 in3.8 mm 0.24 in6.1 mm 0.68 in17.3 mm
04:41 PM 34.2°F1.2°C 31.3°F-0.4°C 89% 17.0 mph NE27.4 kmh NE 32.0 mph51.5 kmh 29.50 in999.0 mb 0.06 in1.5 mm 0.00 in0.0 mm 0.68 in17.3 mm
04:46 PM 34.2°F1.2°C 31.3°F-0.4°C 89% 12.0 mph NE19.3 kmh NE 32.0 mph51.5 kmh 29.50 in999.0 mb 0.05 in1.3 mm 0.00 in0.0 mm 0.69 in17.5 mm
04:51 PM 34.2°F1.2°C 31.3°F-0.4°C 89% 21.0 mph NNE33.8 kmh NNE 32.0 mph51.5 kmh 29.50 in999.0 mb 0.05 in1.3 mm 0.00 in0.0 mm 0.69 in17.5 mm
04:56 PM 34.2°F1.2°C 31.3°F-0.4°C 89% 20.0 mph ENE32.2 kmh ENE 32.0 mph51.5 kmh 29.50 in999.0 mb 0.07 in1.8 mm 0.24 in6.1 mm 0.70 in17.8 mm
05:01 PM 34.2°F1.2°C 31.3°F-0.4°C 89% 15.0 mph NE24.1 kmh NE 32.0 mph51.5 kmh 29.49 in998.6 mb 0.07 in1.8 mm 0.00 in0.0 mm 0.70 in17.8 mm
05:06 PM 34.2°F1.2°C 31.3°F-0.4°C 89% 17.0 mph NE27.4 kmh NE 31.0 mph49.9 kmh 29.50 in999.0 mb 0.05 in1.3 mm 0.00 in0.0 mm 0.71 in18.0 mm
05:11 PM 34.1°F1.2°C 31.2°F-0.4°C 89% 26.0 mph NE41.8 kmh NE 31.0 mph49.9 kmh 29.50 in999.0 mb 0.05 in1.3 mm 0.00 in0.0 mm 0.71 in18.0 mm
05:16 PM 34.1°F1.2°C 31.2°F-0.4°C 89% 11.0 mph ENE17.7 kmh ENE 31.0 mph49.9 kmh 29.50 in999.0 mb 0.06 in1.5 mm 0.12 in3.0 mm 0.72 in18.3 mm
05:21 PM 34.1°F1.2°C 31.2°F-0.4°C 89% 23.0 mph ENE37.0 kmh ENE 31.0 mph49.9 kmh 29.51 in999.3 mb 0.09 in2.3 mm 0.36 in9.1 mm 0.72 in18.3 mm
05:26 PM 34.1°F1.2°C 31.2°F-0.4°C 89% 17.0 mph NNE27.4 kmh NNE 31.0 mph49.9 kmh 29.50 in999.0 mb 0.17 in4.3 mm 0.96 in24.4 mm 0.74 in18.8 mm
05:31 PM 34.1°F1.2°C 31.2°F-0.4°C 89% 13.0 mph NNE20.9 kmh NNE 28.0 mph45.1 kmh 29.50 in999.0 mb 0.20 in5.1 mm 0.36 in9.1 mm 0.75 in19.1 mm
05:36 PM 34.0°F1.1°C 31.1°F-0.5°C 89% 9.0 mph NE14.5 kmh NE 29.0 mph46.7 kmh 29.50 in999.0 mb 0.18 in4.6 mm 0.00 in0.0 mm 0.77 in19.6 mm
05:41 PM 34.0°F1.1°C 31.1°F-0.5°C 89% 8.0 mph NE12.9 kmh NE 29.0 mph46.7 kmh 29.50 in999.0 mb 0.19 in4.8 mm 0.12 in3.0 mm 0.78 in19.8 mm
05:46 PM 34.0°F1.1°C 31.1°F-0.5°C 89% 21.0 mph NNE33.8 kmh NNE 37.0 mph59.5 kmh 29.50 in999.0 mb 0.17 in4.3 mm 0.00 in0.0 mm 0.80 in20.3 mm
05:51 PM 33.9°F1.1°C 31.0°F-0.6°C 89% 10.0 mph NE16.1 kmh NE 37.0 mph59.5 kmh 29.52 in999.7 mb 0.18 in4.6 mm 0.12 in3.0 mm 0.81 in20.6 mm
05:56 PM 34.0°F1.1°C 31.1°F-0.5°C 89% 8.0 mph NNE12.9 kmh NNE 37.0 mph59.5 kmh 29.52 in999.7 mb 0.11 in2.8 mm 0.00 in0.0 mm 0.82 in20.8 mm
06:01 PM 33.9°F1.1°C 31.0°F-0.6°C 89% 13.0 mph NNE20.9 kmh NNE 37.0 mph59.5 kmh 29.52 in999.7 mb 0.15 in3.8 mm 0.04 in1.0 mm 0.83 in21.1 mm
06:06 PM 33.9°F1.1°C 31.0°F-0.6°C 89% 8.0 mph N12.9 kmh N 29.0 mph46.7 kmh 29.52 in999.7 mb 0.12 in3.0 mm 0.00 in0.0 mm 0.84 in21.3 mm
06:11 PM 33.9°F1.1°C 31.0°F-0.6°C 89% 11.0 mph ENE17.7 kmh ENE 29.0 mph46.7 kmh 29.52 in999.7 mb 0.19 in4.8 mm 0.84 in21.3 mm 0.86 in21.8 mm
06:16 PM 33.9°F1.1°C 31.0°F-0.6°C 89% 7.0 mph 11.3 kmh 28.0 mph45.1 kmh 29.53 in1000.0 mb 0.11 in2.8 mm 0.00 in0.0 mm 0.87 in22.1 mm
06:21 PM 33.8°F1.0°C 30.9°F-0.6°C 89% 13.0 mph N20.9 kmh N 28.0 mph45.1 kmh 29.53 in1000.0 mb 0.11 in2.8 mm 0.00 in0.0 mm 0.88 in22.4 mm
06:26 PM 33.8°F1.0°C 30.9°F-0.6°C 89% 14.0 mph N22.5 kmh N 28.0 mph45.1 kmh 29.54 in1000.3 mb 0.11 in2.8 mm 0.00 in0.0 mm 0.89 in22.6 mm
06:31 PM 33.6°F0.9°C 30.7°F-0.7°C 89% 15.0 mph N24.1 kmh N 28.0 mph45.1 kmh 29.55 in1000.7 mb 0.09 in2.3 mm 0.00 in0.0 mm 0.90 in22.9 mm
06:36 PM 33.4°F0.8°C 30.5°F-0.8°C 89% 11.0 mph 17.7 kmh 25.0 mph40.2 kmh 29.55 in1000.7 mb 0.07 in1.8 mm 0.00 in0.0 mm 0.90 in22.9 mm
06:41 PM 33.3°F0.7°C 30.4°F-0.9°C 89% 11.0 mph N17.7 kmh N 25.0 mph40.2 kmh 29.55 in1000.7 mb 0.05 in1.3 mm 0.00 in0.0 mm 0.91 in23.1 mm
06:46 PM 33.3°F0.7°C 30.4°F-0.9°C 89% 7.0 mph NNE11.3 kmh NNE 22.0 mph35.4 kmh 29.56 in1001.0 mb 0.05 in1.3 mm 0.00 in0.0 mm 0.91 in23.1 mm
06:51 PM 33.2°F0.7°C 30.3°F-0.9°C 89% 19.0 mph N30.6 kmh N 27.0 mph43.5 kmh 29.57 in1001.4 mb 0.07 in1.8 mm 0.24 in6.1 mm 0.92 in23.4 mm
06:56 PM 33.1°F0.6°C 30.3°F-0.9°C 89% 8.0 mph N12.9 kmh N 27.0 mph43.5 kmh 29.57 in1001.4 mb 0.06 in1.5 mm 0.00 in0.0 mm 0.92 in23.4 mm
07:01 PM 33.1°F0.6°C 30.3°F-0.9°C 89% 13.0 mph NNE20.9 kmh NNE 27.0 mph43.5 kmh 29.57 in1001.4 mb 0.06 in1.5 mm 0.00 in0.0 mm 0.93 in23.6 mm
07:06 PM 33.1°F0.6°C 30.3°F-0.9°C 89% 14.0 mph NNE22.5 kmh NNE 27.0 mph43.5 kmh 29.57 in1001.4 mb 0.09 in2.3 mm 0.36 in9.1 mm 0.94 in23.9 mm
07:11 PM 33.0°F0.6°C 30.2°F-1.0°C 89% 6.0 mph NNW9.7 kmh NNW 29.0 mph46.7 kmh 29.58 in1001.7 mb 0.07 in1.8 mm 0.00 in0.0 mm 0.94 in23.9 mm
07:16 PM 32.9°F0.5°C 30.1°F-1.1°C 89% 9.0 mph N14.5 kmh N 29.0 mph46.7 kmh 29.58 in1001.7 mb 0.06 in1.5 mm 0.00 in0.0 mm 0.95 in24.1 mm
07:21 PM 32.9°F0.5°C 30.1°F-1.1°C 89% 13.0 mph N20.9 kmh N 29.0 mph46.7 kmh 29.58 in1001.7 mb 0.10 in2.5 mm 0.48 in12.2 mm 0.96 in24.4 mm
07:26 PM 32.8°F0.4°C 30.0°F-1.1°C 89% 15.0 mph NE24.1 kmh NE 29.0 mph46.7 kmh 29.58 in1001.7 mb 0.08 in2.0 mm 0.00 in0.0 mm 0.96 in24.4 mm
07:31 PM 32.8°F0.4°C 30.0°F-1.1°C 89% 12.0 mph NNE19.3 kmh NNE 25.0 mph40.2 kmh 29.58 in1001.7 mb 0.14 in3.6 mm 0.72 in18.3 mm 0.97 in24.6 mm
07:36 PM 32.7°F0.4°C 29.9°F-1.2°C 89% 9.0 mph N14.5 kmh N 25.0 mph40.2 kmh 29.59 in1002.0 mb 0.11 in2.8 mm 0.00 in0.0 mm 0.98 in24.9 mm
07:41 PM 32.7°F0.4°C 29.9°F-1.2°C 89% 15.0 mph NNE24.1 kmh NNE 24.0 mph38.6 kmh 29.59 in1002.0 mb 0.19 in4.8 mm 0.96 in24.4 mm 0.99 in25.1 mm
07:46 PM 32.7°F0.4°C 29.9°F-1.2°C 89% 21.0 mph NNE33.8 kmh NNE 25.0 mph40.2 kmh 29.60 in1002.4 mb 0.14 in3.6 mm 0.00 in0.0 mm 1.00 in25.4 mm
07:51 PM 32.7°F0.4°C 29.9°F-1.2°C 89% 8.0 mph NNE12.9 kmh NNE 26.0 mph41.8 kmh 29.60 in1002.4 mb 0.15 in3.8 mm 0.12 in3.0 mm 1.02 in25.9 mm
07:56 PM 32.7°F0.4°C 29.9°F-1.2°C 89% 9.0 mph N14.5 kmh N 26.0 mph41.8 kmh 29.60 in1002.4 mb 0.17 in4.3 mm 0.24 in6.1 mm 1.03 in26.2 mm
08:01 PM 32.7°F0.4°C 29.9°F-1.2°C 89% 7.0 mph NE11.3 kmh NE 30.0 mph48.3 kmh 29.61 in1002.7 mb 0.11 in2.8 mm 0.00 in0.0 mm 1.04 in26.4 mm
08:06 PM 32.7°F0.4°C 29.9°F-1.2°C 89% 15.0 mph NNW24.1 kmh NNW 30.0 mph48.3 kmh 29.63 in1003.4 mb 0.15 in3.8 mm 0.48 in12.2 mm 1.05 in26.7 mm
08:11 PM 32.7°F0.4°C 29.9°F-1.2°C 89% 7.0 mph NE11.3 kmh NE 30.0 mph48.3 kmh 29.64 in1003.7 mb 0.11 in2.8 mm 0.00 in0.0 mm 1.06 in26.9 mm
08:16 PM 32.7°F0.4°C 29.9°F-1.2°C 89% 7.0 mph NNE11.3 kmh NNE 30.0 mph48.3 kmh 29.65 in1004.1 mb 0.17 in4.3 mm 0.72 in18.3 mm 1.08 in27.4 mm
08:21 PM 32.7°F0.4°C 29.9°F-1.2°C 89% 13.0 mph NNE20.9 kmh NNE 25.0 mph40.2 kmh 29.66 in1004.4 mb 0.12 in3.0 mm 0.00 in0.0 mm 1.09 in27.7 mm
08:26 PM 32.7°F0.4°C 29.9°F-1.2°C 89% 6.0 mph N9.7 kmh N 26.0 mph41.8 kmh 29.66 in1004.4 mb 0.14 in3.6 mm 0.24 in6.1 mm 1.10 in27.9 mm
08:31 PM 32.6°F0.3°C 29.8°F-1.2°C 89% 15.0 mph NW24.1 kmh NW 26.0 mph41.8 kmh 29.67 in1004.7 mb 0.11 in2.8 mm 0.00 in0.0 mm 1.11 in28.2 mm
08:36 PM 32.6°F0.3°C 29.8°F-1.2°C 89% 7.0 mph NNW11.3 kmh NNW 26.0 mph41.8 kmh 29.68 in1005.1 mb 0.12 in3.0 mm 0.12 in3.0 mm 1.12 in28.4 mm
08:41 PM 32.6°F0.3°C 29.8°F-1.2°C 89% 7.0 mph NNW11.3 kmh NNW 26.0 mph41.8 kmh 29.68 in1005.1 mb 0.15 in3.8 mm 0.36 in9.1 mm 1.13 in28.7 mm
08:46 PM 32.6°F0.3°C 29.8°F-1.2°C 89% 5.0 mph NNE8.0 kmh NNE 21.0 mph33.8 kmh 29.70 in1005.8 mb 0.11 in2.8 mm 0.00 in0.0 mm 1.14 in29.0 mm
08:51 PM 32.6°F0.3°C 29.8°F-1.2°C 89% 4.0 mph NNW6.4 kmh NNW 21.0 mph33.8 kmh 29.70 in1005.8 mb 0.15 in3.8 mm 0.48 in12.2 mm 1.15 in29.2 mm
08:56 PM 32.5°F0.3°C 29.7°F-1.3°C 89% 11.0 mph N17.7 kmh N 22.0 mph35.4 kmh 29.72 in1006.4 mb 0.11 in2.8 mm 0.00 in0.0 mm 1.16 in29.5 mm
09:01 PM 32.5°F0.3°C 29.7°F-1.3°C 89% 6.0 mph NW9.7 kmh NW 22.0 mph35.4 kmh 29.72 in1006.4 mb 0.15 in3.8 mm 0.04 in1.0 mm 1.18 in30.0 mm
09:06 PM 32.5°F0.3°C 29.7°F-1.3°C 89% 13.0 mph N20.9 kmh N 22.0 mph35.4 kmh 29.73 in1006.8 mb 0.12 in3.0 mm 0.00 in0.0 mm 1.19 in30.2 mm
09:11 PM 32.5°F0.3°C 29.7°F-1.3°C 89% 6.0 mph NNW9.7 kmh NNW 24.0 mph38.6 kmh 29.72 in1006.4 mb 0.15 in3.8 mm 0.36 in9.1 mm 1.20 in30.5 mm
09:16 PM 32.5°F0.3°C 29.7°F-1.3°C 89% 6.0 mph NNW9.7 kmh NNW 24.0 mph38.6 kmh 29.73 in1006.8 mb 0.11 in2.8 mm 0.00 in0.0 mm 1.21 in30.7 mm
09:21 PM 32.5°F0.3°C 29.9°F-1.2°C 90% 12.0 mph NNW19.3 kmh NNW 24.0 mph38.6 kmh 29.74 in1007.1 mb 0.14 in3.6 mm 0.36 in9.1 mm 1.22 in31.0 mm
09:26 PM 32.5°F0.3°C 29.7°F-1.3°C 89% 15.0 mph NNW24.1 kmh NNW 24.0 mph38.6 kmh 29.75 in1007.5 mb 0.10 in2.5 mm 0.00 in0.0 mm 1.23 in31.2 mm
09:31 PM 32.5°F0.3°C 29.7°F-1.3°C 89% 9.0 mph NW14.5 kmh NW 18.0 mph29.0 kmh 29.75 in1007.5 mb 0.15 in3.8 mm 0.60 in15.2 mm 1.24 in31.5 mm
09:36 PM 32.5°F0.3°C 29.7°F-1.3°C 89% 10.0 mph N16.1 kmh N 18.0 mph29.0 kmh 29.76 in1007.8 mb 0.10 in2.5 mm 0.00 in0.0 mm 1.24 in31.5 mm
09:41 PM 32.5°F0.3°C 29.7°F-1.3°C 89% 5.0 mph NW8.0 kmh NW 17.0 mph27.4 kmh 29.76 in1007.8 mb 0.14 in3.6 mm 0.48 in12.2 mm 1.26 in32.0 mm
09:46 PM 32.5°F0.3°C 29.7°F-1.3°C 89% 6.0 mph NNW9.7 kmh NNW 17.0 mph27.4 kmh 29.77 in1008.1 mb 0.10 in2.5 mm 0.00 in0.0 mm 1.27 in32.3 mm
09:51 PM 32.5°F0.3°C 29.9°F-1.2°C 90% 6.0 mph N9.7 kmh N 17.0 mph27.4 kmh 29.77 in1008.1 mb 0.17 in4.3 mm 0.84 in21.3 mm 1.28 in32.5 mm
09:56 PM 32.5°F0.3°C 29.9°F-1.2°C 90% 12.0 mph NNW19.3 kmh NNW 23.0 mph37.0 kmh 29.78 in1008.5 mb 0.12 in3.0 mm 0.00 in0.0 mm 1.29 in32.8 mm
10:01 PM 32.6°F0.3°C 29.8°F-1.2°C 89% 8.0 mph NNW12.9 kmh NNW 26.0 mph41.8 kmh 29.79 in1008.8 mb 0.13 in3.3 mm 0.01 in0.3 mm 1.30 in33.0 mm
10:06 PM 32.6°F0.3°C 30.0°F-1.1°C 90% 6.0 mph NE9.7 kmh NE 26.0 mph41.8 kmh 29.79 in1008.8 mb 0.09 in2.3 mm 0.00 in0.0 mm 1.31 in33.3 mm
10:11 PM 32.6°F0.3°C 29.8°F-1.2°C 89% 7.0 mph NW11.3 kmh NW 26.0 mph41.8 kmh 29.80 in1009.1 mb 0.11 in2.8 mm 0.24 in6.1 mm 1.32 in33.5 mm
10:16 PM 32.5°F0.3°C 29.9°F-1.2°C 90% 15.0 mph NNW24.1 kmh NNW 26.0 mph41.8 kmh 29.80 in1009.1 mb 0.10 in2.5 mm 0.00 in0.0 mm 1.33 in33.8 mm
10:21 PM 32.6°F0.3°C 29.8°F-1.2°C 89% 13.0 mph NNW20.9 kmh NNW 20.0 mph32.2 kmh 29.81 in1009.5 mb 0.10 in2.5 mm 0.00 in0.0 mm 1.33 in33.8 mm
10:26 PM 32.5°F0.3°C 29.7°F-1.3°C 89% 6.0 mph NW9.7 kmh NW 20.0 mph32.2 kmh 29.82 in1009.8 mb 0.10 in2.5 mm 0.00 in0.0 mm 1.34 in34.0 mm
10:31 PM 32.5°F0.3°C 29.7°F-1.3°C 89% 5.0 mph NW8.0 kmh NW 20.0 mph32.2 kmh 29.82 in1009.8 mb 0.05 in1.3 mm 0.00 in0.0 mm 1.34 in34.0 mm
10:36 PM 32.5°F0.3°C 29.9°F-1.2°C 90% 5.0 mph N8.0 kmh N 20.0 mph32.2 kmh 29.83 in1010.2 mb 0.05 in1.3 mm 0.00 in0.0 mm 1.35 in34.3 mm
10:41 PM 32.5°F0.3°C 29.7°F-1.3°C 89% 5.0 mph WNW8.0 kmh WNW 20.0 mph32.2 kmh 29.83 in1010.2 mb 0.05 in1.3 mm 0.00 in0.0 mm 1.35 in34.3 mm
10:46 PM 32.5°F0.3°C 29.9°F-1.2°C 90% 13.0 mph NNW20.9 kmh NNW 20.0 mph32.2 kmh 29.84 in1010.5 mb 0.06 in1.5 mm 0.12 in3.0 mm 1.36 in34.5 mm
10:51 PM 32.5°F0.3°C 29.9°F-1.2°C 90% 7.0 mph NW11.3 kmh NW 16.0 mph25.7 kmh 29.85 in1010.8 mb 0.06 in1.5 mm 0.00 in0.0 mm 1.36 in34.5 mm
10:56 PM 32.6°F0.3°C 30.0°F-1.1°C 90% 6.0 mph NNW9.7 kmh NNW 18.0 mph29.0 kmh 29.86 in1011.2 mb 0.04 in1.0 mm 0.00 in0.0 mm 1.36 in34.5 mm
11:01 PM 32.5°F0.3°C 29.9°F-1.2°C 90% 7.0 mph NW11.3 kmh NW 18.0 mph29.0 kmh 29.86 in1011.2 mb 0.00 in0.0 mm 0.00 in0.0 mm 1.36 in34.5 mm
11:06 PM 32.5°F0.3°C 29.9°F-1.2°C 90% 5.0 mph NW8.0 kmh NW 18.0 mph29.0 kmh 29.86 in1011.2 mb 0.00 in0.0 mm 0.00 in0.0 mm 1.37 in34.8 mm
11:11 PM 32.5°F0.3°C 29.9°F-1.2°C 90% 5.0 mph NW8.0 kmh NW 20.0 mph32.2 kmh 29.87 in1011.5 mb 0.00 in0.0 mm 0.00 in0.0 mm 1.37 in34.8 mm
11:16 PM 32.5°F0.3°C 29.9°F-1.2°C 90% 8.0 mph NW12.9 kmh NW 20.0 mph32.2 kmh 29.88 in1011.9 mb 0.00 in0.0 mm 0.00 in0.0 mm 1.37 in34.8 mm
11:21 PM 32.5°F0.3°C 29.7°F-1.3°C 89% 11.0 mph NW17.7 kmh NW 20.0 mph32.2 kmh 29.88 in1011.9 mb 0.00 in0.0 mm 0.00 in0.0 mm 1.37 in34.8 mm
11:26 PM 32.4°F0.2°C 29.6°F-1.3°C 89% 8.0 mph N12.9 kmh N 20.0 mph32.2 kmh 29.88 in1011.9 mb 0.00 in0.0 mm 0.00 in0.0 mm 1.37 in34.8 mm
11:31 PM 32.4°F0.2°C 29.6°F-1.3°C 89% 9.0 mph NW14.5 kmh NW 16.0 mph25.7 kmh 29.88 in1011.9 mb 0.00 in0.0 mm 0.00 in0.0 mm 1.37 in34.8 mm
11:36 PM 32.4°F0.2°C 29.6°F-1.3°C 89% 6.0 mph NNW9.7 kmh NNW 16.0 mph25.7 kmh 29.89 in1012.2 mb 0.00 in0.0 mm 0.00 in0.0 mm 1.37 in34.8 mm
11:41 PM 32.4°F0.2°C 29.6°F-1.3°C 89% 4.0 mph NW6.4 kmh NW 16.0 mph25.7 kmh 29.90 in1012.5 mb 0.00 in0.0 mm 0.00 in0.0 mm 1.37 in34.8 mm
11:46 PM 32.4°F0.2°C 29.6°F-1.3°C 89% 5.0 mph NW8.0 kmh NW 16.0 mph25.7 kmh 29.90 in1012.5 mb 0.00 in0.0 mm 0.00 in0.0 mm 1.38 in35.1 mm
11:51 PM 32.4°F0.2°C 29.8°F-1.2°C 90% 8.0 mph NNW12.9 kmh NNW 19.0 mph30.6 kmh 29.91 in1012.9 mb 0.00 in0.0 mm 0.00 in0.0 mm 1.38 in35.1 mm
11:56 PM 32.4°F0.2°C 29.6°F-1.3°C 89% 6.0 mph WNW9.7 kmh WNW 19.0 mph30.6 kmh 29.91 in1012.9 mb 0.00 in0.0 mm 0.00 in0.0 mm 1.38 in35.1 mm